• Join FlightAware (Why Join?)
  • Login
  • US Flag 
08:11PM EDT


 

Airport Tracker/Info


-or-


 

Live Flight TrackerFlight Track Log ✈ TAM3297 ✈ 28-Feb-2012 ✈ SBPA / POA - SBGR / GRU

Flight Track Log - Related Links

Times and Time Zones

All times are in EST time to prevent confusion due to time zone crossing. See the TAM3297 flight status page for this flight to view local times or setup timezone preferences in your user account.

Time Position Orientation Groundspeed Altitude Reporting Facility
EST Latitude Longitude Course Direction KTS MPH feet Rate Location/Type
04:23AM -27.7523 -49.4897 33° Northeast  Level Estimated
04:24AM -27.6651 -49.4259 33° Northeast  Level Estimated
04:25AM -27.5778 -49.3623 33° Northeast  Level Estimated
04:26AM -27.4905 -49.2988 33° Northeast  Level Estimated
04:27AM -27.4031 -49.2354 33° Northeast  Level Estimated
04:28AM -27.3157 -49.1721 33° Northeast  Level Estimated
04:29AM -27.2283 -49.1089 33° Northeast  Level Estimated
04:30AM -27.1409 -49.0458 33° Northeast  Level Estimated
04:31AM -27.0535 -48.9828 33° Northeast  Level Estimated
04:32AM -26.9660 -48.9198 33° Northeast  Level Estimated
04:33AM -26.8785 -48.8570 33° Northeast  Level Estimated
04:34AM -26.7909 -48.7943 33° Northeast  Level Estimated
04:35AM -26.7034 -48.7317 33° Northeast  Level Estimated
04:36AM -26.6157 -48.6692 33° Northeast  Level Estimated
04:37AM -26.5281 -48.6067 32° Northeast  Level Estimated
04:38AM -26.4405 -48.5444 32° Northeast  Level Estimated
04:39AM -26.3528 -48.4822 32° Northeast  Level Estimated
04:40AM -26.2651 -48.4200 32° Northeast  Level Estimated
04:41AM -26.1774 -48.3579 32° Northeast  Level Estimated
04:42AM -26.0896 -48.2960 32° Northeast  Level Estimated
04:43AM -26.0018 -48.2341 32° Northeast  Level Estimated
04:44AM -25.9140 -48.1723 32° Northeast  Level Estimated
04:45AM -25.8262 -48.1107 32° Northeast  Level Estimated
04:46AM -25.7383 -48.0491 32° Northeast  Level Estimated
04:47AM -25.6504 -47.9876 32° Northeast  Level Estimated
04:48AM -25.5625 -47.9262 32° Northeast  Level Estimated
04:49AM -25.4746 -47.8648 32° Northeast  Level Estimated
04:50AM -25.3866 -47.8036 32° Northeast  Level Estimated
04:51AM -25.2986 -47.7425 32° Northeast  Level Estimated
04:52AM -25.2106 -47.6814 32° Northeast  Level Estimated
04:53AM -25.1225 -47.6204 32° Northeast  Level Estimated
04:54AM -25.0345 -47.5596 32° Northeast  Level Estimated
04:55AM -24.9464 -47.4988 32° Northeast  Level Estimated
04:56AM -24.8583 -47.4381 32° Northeast  Level Estimated
04:57AM -24.7701 -47.3775 32° Northeast  Level Estimated
04:58AM -24.6820 -47.3169 32° Northeast  Level Estimated
04:59AM -24.5938 -47.2565 32° Northeast  Level Estimated
05:00AM -24.5056 -47.1961 32° Northeast  Level Estimated
05:01AM -24.4173 -47.1359 32° Northeast  Level Estimated
05:02AM -24.3291 -47.0757 32° Northeast  Level Estimated
05:03AM -24.2408 -47.0156 32° Northeast  Level Estimated
05:04AM -24.1525 -46.9555 32° Northeast  Level Estimated
05:05AM -24.0641 -46.8956 32° Northeast  Level Estimated
05:06AM -23.9758 -46.8357 32° Northeast  Level Estimated
05:07AM -23.8874 -46.7760 32° Northeast  Level Estimated
05:08AM -23.7990 -46.7163 32° Northeast  Level Estimated
05:09AM -23.7106 -46.6567 32° Northeast  Level Estimated
05:10AM -23.6222 -46.5971 32° Northeast  Level Estimated
05:11AM -23.5337 -46.5377 32° Northeast  Level Estimated
05:12AM -23.4452 -46.4783 32° Northeast  Level Estimated
05:13AM -23.3567 -46.4190 212° Southwest  Level Estimated
05:14AM -23.4452 -46.4783 32° Northeast  Level Estimated
05:15AM -23.3567 -46.4190 212° Southwest  Level Estimated
05:16AM -23.4452 -46.4783 32° Northeast  Level Estimated
05:17AM -23.3567 -46.4190 212° Southwest  Level Estimated
05:18AM -23.4452 -46.4783 32° Northeast  Level Estimated
05:19AM -23.3567 -46.4190 212° Southwest  Level Estimated
05:20AM -23.4452 -46.4783 32° Northeast  Level Estimated
05:21AM -23.3567 -46.4190 212° Southwest  Level Estimated
05:22AM -23.4452 -46.4783 32° Northeast  Level Estimated
05:23AM -23.3567 -46.4190 212° Southwest  Level Estimated
05:24AM -23.4452 -46.4783 32° Northeast  Level Estimated
05:25AM -23.3567 -46.4190 212° Southwest  Level Estimated
05:26AM -23.4452 -46.4783 32° Northeast  Level Estimated
05:27AM -23.3567 -46.4190 212° Southwest  Level Estimated
05:28AM -23.4452 -46.4783 212° Southwest  Level Estimated